Time;durP1;ratioP1;P1;durP2;ratioP2;P2;SDS_P1;SDS_P2;PMS_P1;PMS_P2;Temp;Humidity;BMP_temperature;BMP_pressure;BME280_temperature;BME280_humidity;BME280_pressure;Samples;Min_cycle;Max_cycle;Signal;HPM_P1;HPM_P2
2022/07/31 00:00:35;;;;;;;4.25;3.10;;;18.00;99.90;;;;;;5040360;28;20556;-70
2022/07/31 00:03:01;;;;;;;7.25;4.10;;;17.90;99.90;;;;;;5039305;28;20520;-69
2022/07/31 00:05:27;;;;;;;5.60;3.75;;;18.00;99.90;;;;;;5041172;28;20029;-69
2022/07/31 00:07:53;;;;;;;7.05;4.60;;;17.90;99.90;;;;;;5037579;28;20049;-69
2022/07/31 00:10:19;;;;;;;6.88;4.55;;;18.00;99.90;;;;;;5043068;28;20087;-69
2022/07/31 00:12:44;;;;;;;6.95;4.95;;;18.00;99.90;;;;;;5037712;28;20045;-69
2022/07/31 00:15:11;;;;;;;6.50;4.85;;;18.10;99.90;;;;;;5037309;28;20101;-69
2022/07/31 00:17:38;;;;;;;5.18;4.03;;;18.10;99.90;;;;;;5040018;28;20045;-70
2022/07/31 00:20:04;;;;;;;6.28;4.18;;;18.00;99.90;;;;;;5038916;28;20091;-69
2022/07/31 00:22:29;;;;;;;5.72;4.05;;;18.00;99.90;;;;;;5040520;28;20041;-70
2022/07/31 00:24:55;;;;;;;6.78;4.90;;;18.00;99.90;;;;;;5041683;28;20393;-70
2022/07/31 00:27:22;;;;;;;6.20;4.47;;;18.00;99.90;;;;;;5038832;28;20128;-70
2022/07/31 00:29:48;;;;;;;6.78;4.75;;;17.90;99.90;;;;;;5041110;28;20051;-70
2022/07/31 00:32:17;;;;;;;7.28;4.70;;;18.00;99.90;;;;;;5038687;28;20393;-70
2022/07/31 00:34:42;;;;;;;5.43;4.18;;;17.90;99.90;;;;;;5036622;28;20039;-70
2022/07/31 00:37:08;;;;;;;6.32;4.82;;;17.90;99.90;;;;;;5041875;28;20048;-69
2022/07/31 00:39:35;;;;;;;8.13;5.15;;;17.90;99.90;;;;;;5042187;28;20046;-70
2022/07/31 00:42:01;;;;;;;6.03;4.40;;;18.00;99.90;;;;;;5043310;28;20172;-69
2022/07/31 00:44:27;;;;;;;6.30;4.47;;;17.90;99.90;;;;;;5043003;28;20064;-70
2022/07/31 00:46:53;;;;;;;10.43;4.75;;;18.00;99.90;;;;;;5040440;28;20481;-69
2022/07/31 00:49:18;;;;;;;6.95;4.82;;;17.90;99.90;;;;;;5041882;28;20087;-69
2022/07/31 00:51:44;;;;;;;7.10;4.53;;;18.00;99.90;;;;;;5045934;28;20119;-69
2022/07/31 00:54:10;;;;;;;7.00;4.75;;;17.90;99.90;;;;;;5042600;28;20041;-70
2022/07/31 00:56:36;;;;;;;6.03;4.57;;;18.00;99.90;;;;;;5046563;28;20049;-69
2022/07/31 00:59:02;;;;;;;6.78;4.30;;;17.90;99.90;;;;;;5042620;28;20056;-69
2022/07/31 01:01:28;;;;;;;7.80;4.65;;;17.90;99.90;;;;;;5045379;28;20053;-69
2022/07/31 01:03:53;;;;;;;5.72;4.60;;;17.90;99.90;;;;;;5042970;28;20096;-69
2022/07/31 01:06:19;;;;;;;7.18;4.70;;;18.00;99.90;;;;;;5044196;28;20405;-68
2022/07/31 01:08:45;;;;;;;6.75;5.07;;;18.00;99.90;;;;;;5044096;28;20041;-69
2022/07/31 01:11:40;;;;;;;6.68;5.13;;;18.00;99.90;;;;;;5042149;28;20041;-69
2022/07/31 01:14:07;;;;;;;7.45;4.70;;;18.00;99.90;;;;;;5037230;28;20053;-68
2022/07/31 01:16:37;;;;;;;7.72;5.35;;;18.00;99.90;;;;;;5044810;28;20473;-67
2022/07/31 01:19:26;;;;;;;8.25;5.32;;;18.00;99.90;;;;;;5040451;28;20033;-68
2022/07/31 01:22:04;;;;;;;8.27;5.43;;;18.00;99.90;;;;;;5038003;28;20049;-68
2022/07/31 01:24:56;;;;;;;6.95;5.65;;;18.00;99.90;;;;;;5041893;28;20037;-68
2022/07/31 01:27:46;;;;;;;7.93;5.68;;;18.00;99.90;;;;;;5041741;28;20085;-68
2022/07/31 01:30:12;;;;;;;9.40;5.78;;;18.00;99.90;;;;;;5040156;28;20504;-68
2022/07/31 01:32:45;;;;;;;8.38;5.70;;;17.90;99.90;;;;;;5043675;28;20056;-67
2022/07/31 01:35:14;;;;;;;7.93;6.10;;;17.90;99.90;;;;;;5041705;28;20045;-68
2022/07/31 01:37:46;;;;;;;6.90;4.90;;;17.90;99.90;;;;;;5044917;28;20037;-68
2022/07/31 01:40:20;;;;;;;6.25;4.68;;;17.90;99.90;;;;;;5042089;28;20049;-67
2022/07/31 01:42:54;;;;;;;8.18;4.88;;;17.80;99.90;;;;;;5042682;28;20079;-69
2022/07/31 01:45:21;;;;;;;6.00;4.85;;;17.80;99.90;;;;;;5039364;28;20057;-68
2022/07/31 01:47:48;;;;;;;8.05;5.35;;;17.80;99.90;;;;;;5041074;28;20048;-68
2022/07/31 01:50:14;;;;;;;6.07;5.38;;;17.80;99.90;;;;;;5041993;28;20049;-69
2022/07/31 01:52:44;;;;;;;7.65;5.30;;;17.80;99.90;;;;;;5044294;28;20556;-69
2022/07/31 01:55:12;;;;;;;8.07;5.75;;;17.80;99.90;;;;;;5041810;28;20045;-69
2022/07/31 01:57:41;;;;;;;7.15;5.80;;;17.90;99.90;;;;;;5040536;28;20114;-69
2022/07/31 02:00:09;;;;;;;9.95;5.95;;;17.90;99.90;;;;;;5040214;28;20046;-69
2022/07/31 02:02:36;;;;;;;6.68;5.57;;;17.90;99.90;;;;;;5045128;28;20086;-68
2022/07/31 02:05:07;;;;;;;9.60;5.80;;;17.80;99.90;;;;;;5040383;28;20045;-68
2022/07/31 02:07:40;;;;;;;7.88;5.90;;;17.80;99.90;;;;;;5044011;28;20045;-68
2022/07/31 02:10:08;;;;;;;6.70;5.47;;;17.70;99.90;;;;;;5041332;28;20172;-69
2022/07/31 02:12:36;;;;;;;8.70;5.68;;;17.70;99.90;;;;;;5044674;28;20056;-69
2022/07/31 02:15:11;;;;;;;6.85;5.70;;;17.70;99.90;;;;;;5036371;28;20060;-67
2022/07/31 02:17:37;;;;;;;6.32;5.15;;;17.70;99.90;;;;;;5039077;28;20053;-67
2022/07/31 02:20:06;;;;;;;6.95;5.57;;;17.60;99.90;;;;;;5040524;28;20052;-67
2022/07/31 02:22:33;;;;;;;7.35;6.03;;;17.70;99.90;;;;;;5042471;28;20037;-68
2022/07/31 02:24:59;;;;;;;8.60;5.55;;;17.60;99.90;;;;;;5041447;28;20091;-68
2022/07/31 02:27:27;;;;;;;8.00;4.97;;;17.70;99.90;;;;;;5043849;28;20041;-68
2022/07/31 02:29:54;;;;;;;8.38;5.30;;;17.60;99.90;;;;;;5036156;28;20042;-69
2022/07/31 02:32:21;;;;;;;8.07;5.03;;;17.60;99.90;;;;;;5044633;28;20037;-69
2022/07/31 02:34:47;;;;;;;7.82;4.85;;;17.60;99.90;;;;;;5040487;28;20042;-69
2022/07/31 02:37:14;;;;;;;7.20;4.97;;;17.60;99.90;;;;;;5042706;28;20042;-69
2022/07/31 02:39:41;;;;;;;7.22;5.53;;;17.50;99.90;;;;;;5042419;28;20098;-69
2022/07/31 02:42:07;;;;;;;7.95;5.63;;;17.50;99.90;;;;;;5042644;28;20076;-69
2022/07/31 02:44:33;;;;;;;9.13;4.88;;;17.50;99.90;;;;;;5037152;28;20064;-69
2022/07/31 02:47:01;;;;;;;7.30;5.90;;;17.40;99.90;;;;;;5041683;28;20393;-68
2022/07/31 02:49:28;;;;;;;6.68;5.20;;;17.50;99.90;;;;;;5042016;28;20499;-68
2022/07/31 02:51:55;;;;;;;7.68;5.10;;;17.50;99.90;;;;;;5040729;28;20494;-69
2022/07/31 02:54:23;;;;;;;8.05;5.30;;;17.40;99.90;;;;;;5044341;28;20045;-70
2022/07/31 02:56:50;;;;;;;6.80;4.80;;;17.40;99.90;;;;;;5035891;28;20041;-69
2022/07/31 02:59:15;;;;;;;7.68;5.43;;;17.50;99.90;;;;;;5043846;28;20041;-69
2022/07/31 03:01:41;;;;;;;7.43;4.72;;;17.50;99.90;;;;;;5041581;28;20041;-69
2022/07/31 03:04:07;;;;;;;5.93;5.00;;;17.50;99.90;;;;;;5040490;28;20049;-69
2022/07/31 03:06:33;;;;;;;5.72;4.30;;;17.40;99.90;;;;;;5040981;28;20124;-68
2022/07/31 03:08:58;;;;;;;9.27;5.30;;;17.40;99.90;;;;;;5041472;28;20054;-69
2022/07/31 03:11:24;;;;;;;6.95;5.13;;;17.40;99.90;;;;;;5042800;28;20044;-69
2022/07/31 03:13:52;;;;;;;10.00;5.18;;;17.40;99.90;;;;;;5038900;28;20093;-69
2022/07/31 03:16:18;;;;;;;11.32;6.15;;;17.50;99.90;;;;;;5040405;28;20033;-69
2022/07/31 03:18:44;;;;;;;7.07;5.43;;;17.50;99.90;;;;;;5034645;28;20045;-69
2022/07/31 03:21:11;;;;;;;9.95;5.47;;;17.50;99.90;;;;;;5043216;28;20515;-69
2022/07/31 03:23:40;;;;;;;7.70;5.32;;;17.50;99.90;;;;;;5039968;28;20041;-69
2022/07/31 03:26:06;;;;;;;7.57;5.28;;;17.40;99.90;;;;;;5040782;28;20124;-69
2022/07/31 03:28:33;;;;;;;7.05;5.20;;;17.40;99.90;;;;;;5041391;28;20461;-69
2022/07/31 03:30:59;;;;;;;9.90;5.47;;;17.50;99.90;;;;;;5039938;28;20056;-69
2022/07/31 03:33:25;;;;;;;6.60;5.00;;;17.40;99.90;;;;;;5039474;28;20128;-69
2022/07/31 03:35:52;;;;;;;8.05;5.25;;;17.50;99.90;;;;;;5042623;28;20083;-69
2022/07/31 03:38:19;;;;;;;6.70;4.85;;;17.40;99.90;;;;;;5039440;28;20055;-70
2022/07/31 03:40:45;;;;;;;7.25;5.43;;;17.40;99.90;;;;;;5042506;28;20039;-69
2022/07/31 03:43:11;;;;;;;7.95;5.15;;;17.50;99.90;;;;;;5038529;28;20592;-69
2022/07/31 03:45:38;;;;;;;6.85;5.13;;;17.50;99.90;;;;;;5041604;28;20033;-69
2022/07/31 03:48:07;;;;;;;7.25;5.45;;;17.40;99.90;;;;;;5038834;28;20049;-69
2022/07/31 03:50:36;;;;;;;7.30;5.28;;;17.50;99.90;;;;;;5042436;28;20071;-69
2022/07/31 03:53:04;;;;;;;8.15;5.47;;;17.50;99.90;;;;;;5039821;28;20078;-69
2022/07/31 03:55:31;;;;;;;6.38;4.90;;;17.50;99.90;;;;;;5040649;28;20057;-69
2022/07/31 03:57:57;;;;;;;7.43;5.15;;;17.60;99.90;;;;;;5039611;28;20052;-69
2022/07/31 04:00:26;;;;;;;6.93;5.43;;;17.60;99.90;;;;;;5042215;28;20033;-69
2022/07/31 04:02:55;;;;;;;8.70;5.20;;;17.50;99.90;;;;;;5031596;28;20124;-69
2022/07/31 04:05:23;;;;;;;6.75;5.22;;;17.50;99.90;;;;;;5041339;28;20427;-69
2022/07/31 04:07:49;;;;;;;8.73;5.57;;;17.60;99.90;;;;;;5040092;28;20048;-69
2022/07/31 04:10:15;;;;;;;7.70;5.50;;;17.60;99.90;;;;;;5043874;28;20041;-68
2022/07/31 04:12:41;;;;;;;6.30;5.10;;;17.60;99.90;;;;;;5041956;28;20079;-69
2022/07/31 04:15:07;;;;;;;8.50;5.43;;;17.60;99.90;;;;;;5038777;28;20056;-70
2022/07/31 04:17:33;;;;;;;10.27;5.93;;;17.60;99.90;;;;;;5044442;28;20029;-69
2022/07/31 04:19:58;;;;;;;7.28;5.18;;;17.60;99.90;;;;;;5044074;28;20044;-69
2022/07/31 04:22:24;;;;;;;8.60;5.60;;;17.60;99.90;;;;;;5044649;28;20377;-68
2022/07/31 04:24:50;;;;;;;8.43;5.80;;;17.60;99.90;;;;;;5040407;28;20128;-69
2022/07/31 04:27:17;;;;;;;7.22;5.95;;;17.60;99.90;;;;;;5043494;28;20041;-69
2022/07/31 04:29:45;;;;;;;7.40;5.45;;;17.70;99.90;;;;;;5042052;28;20099;-69
2022/07/31 04:32:11;;;;;;;7.18;5.20;;;17.70;99.90;;;;;;5044759;28;20041;-68
2022/07/31 04:34:37;;;;;;;8.55;5.50;;;17.60;99.90;;;;;;5043591;28;20048;-69
2022/07/31 04:37:03;;;;;;;6.68;5.97;;;17.70;99.90;;;;;;5045614;28;20091;-69
2022/07/31 04:39:28;;;;;;;7.57;5.93;;;17.70;99.90;;;;;;5043660;28;20505;-68
2022/07/31 04:41:55;;;;;;;8.13;5.78;;;17.80;99.90;;;;;;5045291;28;20385;-69
2022/07/31 04:44:21;;;;;;;7.75;5.50;;;17.80;99.90;;;;;;5042989;28;20477;-69
2022/07/31 04:46:47;;;;;;;8.30;5.72;;;17.80;99.90;;;;;;5044923;28;20043;-69
2022/07/31 04:49:13;;;;;;;7.30;5.70;;;17.80;99.90;;;;;;5043780;28;20053;-69
2022/07/31 04:51:41;;;;;;;7.53;6.18;;;17.90;99.90;;;;;;5044103;28;20042;-69
2022/07/31 04:54:07;;;;;;;8.02;5.78;;;17.90;99.90;;;;;;5045891;28;20045;-69
2022/07/31 04:56:32;;;;;;;7.82;5.95;;;17.90;99.90;;;;;;5040651;28;20061;-70
2022/07/31 04:59:00;;;;;;;9.93;5.80;;;17.90;99.90;;;;;;5042542;28;20037;-68
2022/07/31 05:01:25;;;;;;;7.35;5.75;;;18.00;99.90;;;;;;5044786;28;20071;-70
2022/07/31 05:03:52;;;;;;;7.88;6.35;;;18.00;99.90;;;;;;5041420;28;20078;-69
2022/07/31 05:06:17;;;;;;;9.45;5.72;;;18.00;99.90;;;;;;5043591;28;20542;-69
2022/07/31 05:08:43;;;;;;;7.55;5.75;;;18.10;99.90;;;;;;5043259;28;20052;-70
2022/07/31 05:11:21;;;;;;;10.43;6.25;;;18.10;99.90;;;;;;5042935;28;20368;-69
2022/07/31 05:13:47;;;;;;;9.70;6.38;;;18.00;99.90;;;;;;5042721;28;20033;-70
2022/07/31 05:16:13;;;;;;;9.32;6.50;;;18.10;99.90;;;;;;5038909;28;20077;-70
2022/07/31 05:18:38;;;;;;;8.15;6.35;;;18.20;99.90;;;;;;5044052;28;20122;-70
2022/07/31 05:21:04;;;;;;;9.27;6.13;;;18.30;99.90;;;;;;5041717;28;20056;-69
2022/07/31 05:23:29;;;;;;;8.48;7.03;;;18.30;99.90;;;;;;5045805;28;20037;-70
2022/07/31 05:25:55;;;;;;;9.30;6.22;;;18.30;99.90;;;;;;5041481;28;20037;-70
2022/07/31 05:28:21;;;;;;;7.43;6.40;;;18.30;99.90;;;;;;5045553;28;20431;-69
2022/07/31 05:30:46;;;;;;;7.32;6.00;;;18.40;99.90;;;;;;5041920;28;20134;-69
2022/07/31 05:33:12;;;;;;;9.50;6.50;;;18.30;99.90;;;;;;5041079;28;20053;-69
2022/07/31 05:35:38;;;;;;;8.90;6.80;;;18.30;99.90;;;;;;5043064;28;20100;-69
2022/07/31 05:38:03;;;;;;;9.10;6.60;;;18.30;99.90;;;;;;5042780;28;20525;-70
2022/07/31 05:40:29;;;;;;;8.90;6.40;;;18.30;99.90;;;;;;5041051;28;20037;-69
2022/07/31 05:42:55;;;;;;;9.40;5.97;;;18.20;99.90;;;;;;5043790;28;20041;-70
2022/07/31 05:45:20;;;;;;;7.63;6.53;;;18.20;99.90;;;;;;5039612;28;20042;-69
2022/07/31 05:47:46;;;;;;;8.88;6.45;;;18.30;99.90;;;;;;5045000;28;20069;-69
2022/07/31 05:50:13;;;;;;;7.50;6.15;;;18.30;99.90;;;;;;5040924;28;20566;-69
2022/07/31 05:52:38;;;;;;;8.52;6.53;;;18.30;99.90;;;;;;5040023;28;20056;-70
2022/07/31 05:55:04;;;;;;;10.23;7.22;;;18.50;99.90;;;;;;5041856;28;20062;-69
2022/07/31 05:57:30;;;;;;;9.18;6.70;;;18.60;99.90;;;;;;5044116;28;20112;-70
2022/07/31 05:59:56;;;;;;;8.43;6.60;;;18.60;99.90;;;;;;5039482;28;20463;-70
2022/07/31 06:02:21;;;;;;;8.95;6.72;;;18.80;99.90;;;;;;5040537;28;20528;-69
2022/07/31 06:04:47;;;;;;;9.80;7.20;;;18.70;99.90;;;;;;5045266;28;20044;-70
2022/07/31 06:07:12;;;;;;;8.55;7.10;;;18.70;99.90;;;;;;5040564;28;20037;-70
2022/07/31 06:09:38;;;;;;;13.93;7.53;;;18.70;99.90;;;;;;5043127;28;20045;-69
2022/07/31 06:12:04;;;;;;;8.48;7.57;;;18.80;99.90;;;;;;5042435;28;20037;-70
2022/07/31 06:14:29;;;;;;;9.75;7.05;;;18.70;99.90;;;;;;5041057;28;20053;-69
2022/07/31 06:16:55;;;;;;;9.77;7.18;;;18.70;99.90;;;;;;5043747;28;20041;-69
2022/07/31 06:19:21;;;;;;;10.45;7.63;;;18.70;99.90;;;;;;5041652;28;20493;-70
2022/07/31 06:21:46;;;;;;;10.70;7.82;;;18.70;99.90;;;;;;5043288;28;20041;-70
2022/07/31 06:24:12;;;;;;;9.85;8.07;;;18.80;99.90;;;;;;5040981;28;20044;-70
2022/07/31 06:26:37;;;;;;;11.55;7.70;;;18.90;99.90;;;;;;5043063;28;20087;-70
2022/07/31 06:29:03;;;;;;;14.73;9.18;;;19.00;99.90;;;;;;5039613;28;20127;-70
2022/07/31 06:31:29;;;;;;;10.73;8.10;;;19.00;99.90;;;;;;5039241;28;20145;-70
2022/07/31 06:33:54;;;;;;;9.35;7.72;;;18.90;99.90;;;;;;5036677;28;20112;-70
2022/07/31 06:36:20;;;;;;;9.90;7.78;;;18.90;99.90;;;;;;5043110;28;20041;-70
2022/07/31 06:38:46;;;;;;;9.75;8.05;;;19.00;99.90;;;;;;5039857;28;20092;-71
2022/07/31 06:41:43;;;;;;;10.02;8.00;;;19.00;99.90;;;;;;5044130;28;20439;-69
2022/07/31 06:43:57;;;;;;;10.63;8.60;;;19.10;99.90;;;;;;5040099;28;20072;-70
2022/07/31 06:46:23;;;;;;;11.00;8.85;;;19.10;99.90;;;;;;5040828;28;20428;-69
2022/07/31 06:48:48;;;;;;;9.80;8.00;;;19.10;99.90;;;;;;5040840;28;20042;-70
2022/07/31 06:51:14;;;;;;;11.07;8.15;;;19.20;99.90;;;;;;5042642;28;20069;-70
2022/07/31 06:53:40;;;;;;;11.00;8.60;;;19.30;99.90;;;;;;5040915;28;20045;-70
2022/07/31 06:56:05;;;;;;;12.73;8.70;;;19.40;99.90;;;;;;5042281;28;20045;-70
2022/07/31 06:58:32;;;;;;;13.05;8.93;;;19.50;99.90;;;;;;5041712;28;20343;-70
2022/07/31 07:00:57;;;;;;;10.85;8.40;;;19.60;99.90;;;;;;5040971;28;20440;-70
2022/07/31 07:03:23;;;;;;;11.32;7.90;;;19.60;99.90;;;;;;5041907;28;20095;-70
2022/07/31 07:05:48;;;;;;;12.35;8.20;;;19.70;99.90;;;;;;5040256;28;20049;-71
2022/07/31 07:08:14;;;;;;;10.02;7.88;;;19.70;99.90;;;;;;5041782;28;20045;-71
2022/07/31 07:10:40;;;;;;;12.82;8.13;;;19.80;99.90;;;;;;5039909;28;20042;-69
2022/07/31 07:13:05;;;;;;;10.55;8.00;;;19.80;99.90;;;;;;5043530;28;20397;-70
2022/07/31 07:15:31;;;;;;;12.27;8.52;;;19.90;99.90;;;;;;5038501;28;20094;-70
2022/07/31 07:17:56;;;;;;;11.80;7.65;;;19.90;99.90;;;;;;5037938;28;20424;-70
2022/07/31 07:20:22;;;;;;;12.82;6.85;;;20.00;99.90;;;;;;5041166;28;20044;-70
2022/07/31 07:22:48;;;;;;;12.32;7.53;;;20.00;99.90;;;;;;5042095;28;20040;-70
2022/07/31 07:25:13;;;;;;;9.80;7.80;;;20.00;99.90;;;;;;5038984;28;20154;-70
2022/07/31 07:27:39;;;;;;;10.68;7.70;;;20.10;99.90;;;;;;5042020;28;20039;-71
2022/07/31 07:30:08;;;;;;;11.52;7.78;;;20.10;99.90;;;;;;5037065;28;20159;-71
2022/07/31 07:32:34;;;;;;;12.60;7.45;;;20.00;99.90;;;;;;5036962;28;20036;-70
2022/07/31 07:34:59;;;;;;;13.95;7.40;;;20.00;99.90;;;;;;5038384;28;20113;-71
2022/07/31 07:37:25;;;;;;;12.30;7.40;;;20.00;99.90;;;;;;5042519;28;20404;-71
2022/07/31 07:39:51;;;;;;;10.77;7.30;;;20.00;99.90;;;;;;5038587;28;20049;-72
2022/07/31 07:42:17;;;;;;;14.90;8.10;;;20.00;99.90;;;;;;5040498;28;20049;-70
2022/07/31 07:44:45;;;;;;;10.43;7.13;;;20.00;99.90;;;;;;5040712;28;20040;-71
2022/07/31 07:47:11;;;;;;;15.80;8.35;;;20.00;99.90;;;;;;5040625;28;20475;-71
2022/07/31 07:49:36;;;;;;;11.77;7.47;;;20.10;99.90;;;;;;5039038;28;20132;-71
2022/07/31 07:52:03;;;;;;;12.30;8.10;;;20.00;99.90;;;;;;5042386;28;20182;-72
2022/07/31 07:54:28;;;;;;;12.45;8.50;;;20.00;99.90;;;;;;5034722;28;20049;-71
2022/07/31 07:56:55;;;;;;;13.95;7.95;;;20.00;99.90;;;;;;5042558;28;20477;-71
2022/07/31 07:59:21;;;;;;;11.27;7.70;;;20.00;99.90;;;;;;5039730;28;20033;-71
2022/07/31 08:01:46;;;;;;;15.80;8.30;;;19.90;99.90;;;;;;5039247;28;20037;-72
2022/07/31 08:04:12;;;;;;;13.07;7.85;;;19.90;99.90;;;;;;5037117;28;20436;-71
2022/07/31 08:06:38;;;;;;;12.57;7.97;;;19.80;99.90;;;;;;5040070;28;20043;-72
2022/07/31 08:09:04;;;;;;;12.55;8.05;;;19.80;99.90;;;;;;5039547;28;20091;-71
2022/07/31 08:11:29;;;;;;;12.48;8.52;;;19.70;99.90;;;;;;5040149;28;20037;-71
2022/07/31 08:13:55;;;;;;;13.13;8.57;;;19.80;99.90;;;;;;5040829;28;20049;-72
2022/07/31 08:16:21;;;;;;;15.02;8.50;;;19.80;99.90;;;;;;5037616;28;20108;-71
2022/07/31 08:18:50;;;;;;;14.00;8.27;;;19.80;99.90;;;;;;5038127;28;20131;-71
2022/07/31 08:21:16;;;;;;;11.75;7.15;;;19.70;99.90;;;;;;5041036;28;20033;-70
2022/07/31 08:23:41;;;;;;;12.52;7.78;;;19.70;99.90;;;;;;5042972;28;20049;-71
2022/07/31 08:26:07;;;;;;;12.70;7.88;;;19.60;99.90;;;;;;5039674;28;20128;-70
2022/07/31 08:28:35;;;;;;;12.30;8.20;;;19.60;99.90;;;;;;5041578;28;20055;-72
2022/07/31 08:31:02;;;;;;;13.27;8.07;;;19.60;99.90;;;;;;5034515;28;20124;-72
2022/07/31 08:33:27;;;;;;;15.88;9.10;;;19.70;99.90;;;;;;5041259;28;20033;-73
2022/07/31 08:35:53;;;;;;;16.00;9.63;;;19.70;99.90;;;;;;5037346;28;20128;-73
2022/07/31 08:38:19;;;;;;;14.00;9.65;;;19.70;99.90;;;;;;5041165;28;20044;-72
2022/07/31 08:40:45;;;;;;;13.90;9.43;;;19.80;99.90;;;;;;5034865;28;20045;-72
2022/07/31 08:43:12;;;;;;;12.60;8.98;;;19.80;99.90;;;;;;5040437;28;20148;-73
2022/07/31 08:45:40;;;;;;;17.45;9.70;;;19.80;99.90;;;;;;5036495;28;20405;-73
2022/07/31 08:48:08;;;;;;;13.18;9.65;;;19.80;99.90;;;;;;5038686;28;20042;-72
2022/07/31 08:50:37;;;;;;;14.50;10.00;;;19.90;99.90;;;;;;5040131;28;20048;-73
2022/07/31 08:53:03;;;;;;;19.13;10.45;;;19.90;99.90;;;;;;5037873;28;20053;-73
2022/07/31 08:55:31;;;;;;;14.07;9.57;;;19.80;99.90;;;;;;5040012;28;20060;-76
2022/07/31 08:57:57;;;;;;;16.08;10.50;;;19.80;99.90;;;;;;5042741;28;20128;-72
2022/07/31 09:00:23;;;;;;;16.38;9.68;;;19.80;99.90;;;;;;5039441;28;20131;-74
2022/07/31 09:02:51;;;;;;;14.02;9.73;;;19.90;99.90;;;;;;5039544;28;20042;-75
2022/07/31 09:05:19;;;;;;;14.90;9.65;;;19.90;99.90;;;;;;5034160;28;20072;-75
2022/07/31 09:07:44;;;;;;;14.68;9.30;;;19.90;99.90;;;;;;5040892;28;20080;-71
2022/07/31 09:10:27;;;;;;;15.15;10.13;;;19.80;99.90;;;;;;5040040;28;20073;-72
2022/07/31 09:12:54;;;;;;;15.32;9.63;;;19.80;99.90;;;;;;5040124;28;20041;-74
2022/07/31 09:15:27;;;;;;;14.90;10.15;;;19.90;99.90;;;;;;5040611;28;20045;-75
2022/07/31 09:17:53;;;;;;;14.73;9.93;;;19.90;99.90;;;;;;5042895;28;20073;-72
2022/07/31 09:20:25;;;;;;;15.60;9.98;;;19.90;99.90;;;;;;5041405;28;20556;-70
2022/07/31 09:23:08;;;;;;;12.63;8.75;;;19.80;99.90;;;;;;5044079;28;20065;-71
2022/07/31 09:25:34;;;;;;;12.80;8.80;;;19.80;99.90;;;;;;5043238;28;20041;-75
2022/07/31 09:28:01;;;;;;;13.68;9.55;;;19.90;99.90;;;;;;5042415;28;20484;-73
2022/07/31 09:30:27;;;;;;;14.95;10.00;;;19.80;99.90;;;;;;5043303;28;20117;-74
2022/07/31 09:32:53;;;;;;;16.83;9.98;;;19.90;99.90;;;;;;5043554;28;20175;-75
2022/07/31 09:35:18;;;;;;;12.32;8.85;;;19.70;99.90;;;;;;5038654;28;20049;-72
2022/07/31 09:37:47;;;;;;;15.30;9.60;;;19.70;99.90;;;;;;5044853;28;20500;-74
2022/07/31 09:40:13;;;;;;;13.75;9.82;;;19.70;99.90;;;;;;5037101;28;20561;-69
2022/07/31 09:42:42;;;;;;;13.98;8.75;;;19.70;99.90;;;;;;5044316;28;20037;-70
2022/07/31 09:45:21;;;;;;;11.98;8.77;;;19.70;99.90;;;;;;5041234;28;20515;-72
2022/07/31 09:48:02;;;;;;;13.23;9.02;;;19.70;99.90;;;;;;5043471;28;20045;-74
2022/07/31 09:50:28;;;;;;;11.50;8.25;;;19.70;99.90;;;;;;5041803;28;20040;-73
2022/07/31 09:52:58;;;;;;;12.90;8.15;;;19.70;99.90;;;;;;5041261;28;20053;-69
2022/07/31 09:55:24;;;;;;;11.23;8.20;;;19.60;99.90;;;;;;5042414;28;20436;-70
2022/07/31 09:57:57;;;;;;;11.57;8.05;;;19.50;99.90;;;;;;5041315;28;20524;-70
2022/07/31 10:00:25;;;;;;;9.85;7.15;;;19.50;99.90;;;;;;5041849;28;20037;-71
2022/07/31 10:02:54;;;;;;;11.90;7.72;;;19.50;99.90;;;;;;5043048;28;20061;-72
2022/07/31 10:05:22;;;;;;;11.85;7.20;;;19.60;99.90;;;;;;5039458;28;20033;-72
2022/07/31 10:07:49;;;;;;;9.43;6.57;;;19.50;99.90;;;;;;5041762;28;20067;-72
2022/07/31 10:10:15;;;;;;;11.70;7.00;;;19.50;99.90;;;;;;5038038;28;20508;-71
2022/07/31 10:12:47;;;;;;;9.85;6.13;;;19.60;99.90;;;;;;5043952;28;20033;-73
2022/07/31 10:15:16;;;;;;;10.25;7.43;;;19.60;99.90;;;;;;5042106;28;20033;-71
2022/07/31 10:17:46;;;;;;;9.85;6.93;;;19.50;99.90;;;;;;5043242;28;20051;-70
2022/07/31 10:20:20;;;;;;;10.60;7.13;;;19.50;99.90;;;;;;5039229;28;20033;-70
2022/07/31 10:22:49;;;;;;;11.85;8.02;;;19.40;99.90;;;;;;5042287;28;20420;-71
2022/07/31 10:25:26;;;;;;;13.05;7.78;;;19.30;99.90;;;;;;5040964;28;20473;-70
2022/07/31 10:27:53;;;;;;;12.27;7.60;;;19.40;99.90;;;;;;5041339;28;20111;-71
2022/07/31 10:30:20;;;;;;;11.32;7.38;;;19.30;99.90;;;;;;5043130;28;20132;-71
2022/07/31 10:32:55;;;;;;;11.15;8.00;;;19.30;99.90;;;;;;5037045;28;20099;-71
2022/07/31 10:35:21;;;;;;;13.57;8.55;;;19.30;99.90;;;;;;5036053;28;20049;-71
2022/07/31 10:38:17;;;;;;;12.23;8.23;;;19.40;99.90;;;;;;5042416;28;20045;-72
2022/07/31 10:41:30;;;;;;;11.70;8.07;;;19.30;99.90;;;;;;5038119;28;20370;-70
2022/07/31 10:44:09;;;;;;;13.15;9.90;;;19.20;99.90;;;;;;5030900;28;20409;-70
2022/07/31 10:46:35;;;;;;;14.43;10.40;;;19.30;99.90;;;;;;5036322;28;20056;-70
2022/07/31 10:49:04;;;;;;;14.23;10.77;;;19.30;99.90;;;;;;5036400;28;20041;-69
2022/07/31 10:51:30;;;;;;;13.35;10.65;;;19.30;99.90;;;;;;5035696;28;20041;-72
2022/07/31 10:53:59;;;;;;;15.10;10.40;;;19.30;99.90;;;;;;5037372;28;20041;-72
2022/07/31 10:56:25;;;;;;;14.68;10.30;;;19.40;99.90;;;;;;5032753;28;20049;-70
2022/07/31 10:58:53;;;;;;;13.95;11.20;;;19.30;99.90;;;;;;5039153;28;20049;-71
2022/07/31 11:01:24;;;;;;;11.90;9.48;;;19.10;99.90;;;;;;5036663;28;20049;-71
2022/07/31 11:03:59;;;;;;;14.82;9.40;;;19.10;99.90;;;;;;5041295;28;20101;-72
2022/07/31 11:06:25;;;;;;;14.73;10.32;;;19.10;99.90;;;;;;5036961;28;20507;-71
2022/07/31 11:08:56;;;;;;;10.77;7.20;;;19.00;99.90;;;;;;5036767;28;20128;-69
2022/07/31 11:11:32;;;;;;;8.98;4.57;;;18.90;99.90;;;;;;5036761;28;20111;-72
2022/07/31 11:13:59;;;;;;;5.30;3.38;;;18.90;99.90;;;;;;5029622;28;20053;-71
2022/07/31 11:16:25;;;;;;;4.65;2.53;;;18.80;99.90;;;;;;5034647;28;20036;-74
2022/07/31 11:19:01;;;;;;;3.45;1.90;;;18.80;99.90;;;;;;5037161;28;20407;-73
2022/07/31 11:21:38;;;;;;;2.45;1.38;;;18.80;99.90;;;;;;5028879;28;20042;-73
2022/07/31 11:24:20;;;;;;;2.92;1.70;;;18.90;99.90;;;;;;5036651;28;20041;-73
2022/07/31 11:26:54;;;;;;;2.92;1.70;;;18.90;99.90;;;;;;5040295;28;20036;-73
2022/07/31 11:29:29;;;;;;;3.53;1.88;;;19.00;99.90;;;;;;5037917;28;20099;-72
2022/07/31 11:31:57;;;;;;;5.25;2.00;;;19.00;99.90;;;;;;5033438;28;20497;-73
2022/07/31 11:34:24;;;;;;;2.75;1.55;;;19.10;99.90;;;;;;5036412;28;20041;-74
2022/07/31 11:36:50;;;;;;;3.95;1.85;;;19.10;99.90;;;;;;5037203;28;20071;-76
2022/07/31 11:39:16;;;;;;;4.30;1.88;;;19.10;99.90;;;;;;5038424;28;20549;-76
2022/07/31 11:41:42;;;;;;;2.70;1.80;;;19.20;99.90;;;;;;5038138;28;20094;-76
2022/07/31 11:44:07;;;;;;;3.25;1.95;;;19.20;99.90;;;;;;5036790;28;20049;-76
2022/07/31 11:46:36;;;;;;;4.25;2.20;;;19.20;99.90;;;;;;5038909;28;20392;-79
2022/07/31 11:49:03;;;;;;;3.97;2.38;;;19.30;99.90;;;;;;5037398;28;20052;-81
2022/07/31 11:51:30;;;;;;;4.07;2.35;;;19.40;99.90;;;;;;5032622;28;20045;-82
2022/07/31 11:53:56;;;;;;;3.42;2.35;;;19.50;99.90;;;;;;5036808;28;20110;-80
2022/07/31 11:56:23;;;;;;;3.60;2.30;;;19.60;99.90;;;;;;5039338;28;20563;-79
2022/07/31 11:58:54;;;;;;;5.15;2.78;;;19.60;99.90;;;;;;5039697;28;20516;-73
2022/07/31 12:01:26;;;;;;;4.97;3.42;;;19.60;99.90;;;;;;5030224;28;20033;-73
2022/07/31 12:03:52;;;;;;;4.05;2.65;;;19.50;99.90;;;;;;5037800;28;20045;-73
2022/07/31 12:06:19;;;;;;;4.32;3.20;;;19.40;99.90;;;;;;5034817;28;20041;-74
2022/07/31 12:08:46;;;;;;;4.18;3.05;;;19.40;99.90;;;;;;5038956;28;20046;-76
2022/07/31 12:11:12;;;;;;;4.30;2.72;;;19.30;99.90;;;;;;5036840;28;20443;-75
2022/07/31 12:13:38;;;;;;;4.43;2.47;;;19.30;99.90;;;;;;5036481;28;20373;-74
2022/07/31 12:16:06;;;;;;;3.72;2.33;;;19.30;99.90;;;;;;5037473;28;20632;-76
2022/07/31 12:18:48;;;;;;;3.72;2.17;;;19.40;99.90;;;;;;5033906;28;20392;-73
2022/07/31 12:21:15;;;;;;;4.93;2.88;;;19.50;99.90;;;;;;5034253;28;20037;-71
2022/07/31 12:23:51;;;;;;;4.95;2.60;;;19.60;99.90;;;;;;5034223;28;20052;-71
2022/07/31 12:26:26;;;;;;;5.15;3.10;;;19.60;99.90;;;;;;5035169;28;20383;-71
2022/07/31 12:29:04;;;;;;;4.43;2.83;;;19.60;99.90;;;;;;5036806;28;20489;-66
2022/07/31 12:31:42;;;;;;;4.30;2.65;;;19.70;99.90;;;;;;5038911;28;20107;-67
2022/07/31 12:34:08;;;;;;;5.82;2.85;;;19.60;99.90;;;;;;5037921;28;20037;-66
2022/07/31 12:36:34;;;;;;;5.63;2.88;;;19.60;99.90;;;;;;5037495;28;20091;-67
2022/07/31 12:39:02;;;;;;;4.30;2.80;;;19.60;99.90;;;;;;5041165;28;20389;-67
2022/07/31 12:41:28;;;;;;;5.50;3.50;;;19.80;99.90;;;;;;5041424;28;20511;-66
2022/07/31 12:43:54;;;;;;;5.43;2.90;;;19.90;99.90;;;;;;5042032;28;20050;-66
2022/07/31 12:46:33;;;;;;;4.80;2.75;;;20.00;99.90;;;;;;5040587;28;20064;-71